Time;durP1;ratioP1;P1;durP2;ratioP2;P2;SDS_P1;SDS_P2;PMS_P1;PMS_P2;Temp;Humidity;BMP_temperature;BMP_pressure;BME280_temperature;BME280_humidity;BME280_pressure;Samples;Min_cycle;Max_cycle;Signal;HPM_P1;HPM_P2
2021/07/30 00:00:45;;;;;;;4.57;2.60;;;;;;;16.26;71.53;100100.72;5050179;28;20214;-76
2021/07/30 00:03:11;;;;;;;5.30;3.00;;;;;;;16.14;71.60;100098.69;5049295;28;20234;-77
2021/07/30 00:05:38;;;;;;;3.93;2.20;;;;;;;16.08;71.80;100089.28;5050502;28;20255;-77
2021/07/30 00:08:06;;;;;;;4.43;2.50;;;;;;;16.07;71.48;100106.88;5049235;28;20203;-76
2021/07/30 00:10:32;;;;;;;3.87;2.60;;;;;;;16.06;71.80;100104.31;5049352;28;20225;-77
2021/07/30 00:12:59;;;;;;;4.33;2.50;;;;;;;16.02;71.94;100081.69;5049263;28;20226;-76
2021/07/30 00:15:25;;;;;;;3.10;2.50;;;;;;;16.04;71.73;100093.84;5050079;28;20202;-76
2021/07/30 00:17:52;;;;;;;6.37;2.20;;;;;;;15.97;71.53;100099.47;5050106;28;20214;-78
2021/07/30 00:20:18;;;;;;;4.03;2.63;;;;;;;15.96;71.53;100103.88;5049931;28;20210;-76
2021/07/30 00:22:45;;;;;;;4.53;3.00;;;;;;;15.91;71.35;100110.28;5049564;28;20716;-78
2021/07/30 00:25:13;;;;;;;4.40;2.30;;;;;;;15.84;71.93;100092.13;5049734;28;20264;-78
2021/07/30 00:27:41;;;;;;;3.63;2.50;;;;;;;15.82;71.44;100107.16;5048732;28;20205;-77
2021/07/30 00:30:09;;;;;;;3.53;2.90;;;;;;;15.82;71.64;100095.78;5047996;28;20421;-77
2021/07/30 00:32:35;;;;;;;3.53;2.67;;;;;;;15.76;71.95;100093.44;5048248;28;20233;-77
2021/07/30 00:35:02;;;;;;;5.00;3.03;;;;;;;15.68;72.18;100085.84;5048303;28;21398;-78
2021/07/30 00:37:28;;;;;;;2.67;2.47;;;;;;;15.64;71.81;100090.38;5048239;28;20207;-76
2021/07/30 00:39:55;;;;;;;2.97;2.60;;;;;;;15.60;71.97;100088.81;5048163;28;20270;-76
2021/07/30 00:42:23;;;;;;;2.50;2.30;;;;;;;15.56;71.53;100100.41;5047351;28;20234;-76
2021/07/30 00:44:49;;;;;;;3.60;2.33;;;;;;;15.54;71.65;100104.00;5047365;28;20980;-77
2021/07/30 00:47:16;;;;;;;4.03;2.83;;;;;;;15.51;71.96;100097.13;5047609;28;20283;-77
2021/07/30 00:49:42;;;;;;;3.57;2.60;;;;;;;15.47;71.83;100091.13;5047864;28;20650;-76
2021/07/30 00:52:09;;;;;;;3.60;3.10;;;;;;;15.50;71.49;100100.69;5046931;28;20222;-77
2021/07/30 00:54:35;;;;;;;2.77;2.53;;;;;;;15.51;71.49;100109.44;5047077;28;20230;-77
2021/07/30 00:57:02;;;;;;;5.47;2.70;;;;;;;15.42;72.18;100092.25;5047673;28;20207;-78
2021/07/30 00:59:30;;;;;;;4.33;3.17;;;;;;;15.38;71.97;100096.84;5047692;28;20256;-77
2021/07/30 01:01:57;;;;;;;7.30;2.77;;;;;;;15.38;72.26;100077.53;5047141;28;20229;-77
2021/07/30 01:04:23;;;;;;;3.50;2.83;;;;;;;15.31;72.45;100079.59;5046643;28;20199;-77
2021/07/30 01:06:50;;;;;;;3.00;2.70;;;;;;;15.28;72.44;100080.59;5047184;28;20213;-77
2021/07/30 01:09:16;;;;;;;5.63;3.10;;;;;;;15.29;72.26;100084.94;5047210;28;20233;-76
2021/07/30 01:11:44;;;;;;;3.97;2.80;;;;;;;15.19;73.22;100056.50;5047640;28;20880;-77
2021/07/30 01:14:10;;;;;;;7.27;3.17;;;;;;;15.14;73.37;100040.06;5045926;28;20231;-77
2021/07/30 01:16:39;;;;;;;5.93;3.03;;;;;;;15.19;74.74;100011.78;5047409;28;20672;-78
2021/07/30 01:19:07;;;;;;;4.53;3.10;;;;;;;15.22;73.34;100043.19;5047040;28;20312;-76
2021/07/30 01:21:35;;;;;;;5.43;3.40;;;;;;;15.12;73.45;100045.38;5044568;28;20221;-78
2021/07/30 01:24:03;;;;;;;3.43;2.90;;;;;;;15.16;73.22;100043.47;5046734;28;20205;-77
2021/07/30 01:26:30;;;;;;;4.37;3.00;;;;;;;15.13;73.40;100035.72;5047014;28;20202;-78
2021/07/30 01:28:56;;;;;;;3.43;3.13;;;;;;;15.00;74.06;100017.84;5046788;28;20948;-76
2021/07/30 01:31:23;;;;;;;4.60;2.90;;;;;;;15.04;73.80;100019.44;5046410;28;21009;-76
2021/07/30 01:33:49;;;;;;;3.47;2.93;;;;;;;15.06;73.24;100041.25;5045459;28;20202;-76
2021/07/30 01:36:15;;;;;;;5.07;3.10;;;;;;;15.09;73.47;100035.00;5046377;28;20260;-77
2021/07/30 01:38:42;;;;;;;3.53;2.83;;;;;;;15.13;73.55;100035.72;5046155;28;20264;-77
2021/07/30 01:41:10;;;;;;;3.03;2.60;;;;;;;15.06;73.75;100024.63;5045941;28;20220;-77
2021/07/30 01:43:37;;;;;;;4.67;3.20;;;;;;;15.04;73.07;100037.84;5045324;28;20213;-77
2021/07/30 01:46:03;;;;;;;3.60;2.83;;;;;;;15.07;74.26;100000.88;5045759;28;20210;-76
2021/07/30 01:48:30;;;;;;;5.27;3.60;;;;;;;15.05;72.97;100043.94;5045964;28;20198;-77
2021/07/30 01:50:56;;;;;;;4.43;4.03;;;;;;;15.01;73.07;100059.00;5046031;28;20293;-76
2021/07/30 01:53:23;;;;;;;4.07;3.10;;;;;;;15.03;73.10;100051.06;5045401;28;20225;-76
2021/07/30 01:55:49;;;;;;;5.20;3.47;;;;;;;15.05;73.45;100044.78;5046387;28;20236;-77
2021/07/30 01:58:17;;;;;;;3.47;3.17;;;;;;;15.09;73.63;100041.09;5044889;28;20214;-76
2021/07/30 02:00:43;;;;;;;3.53;3.23;;;;;;;15.08;73.72;100033.28;5045935;28;20209;-77
2021/07/30 02:03:10;;;;;;;3.73;3.03;;;;;;;15.13;73.97;100019.97;5046090;28;20240;-77
2021/07/30 02:05:37;;;;;;;4.50;3.13;;;;;;;15.07;73.53;100039.47;5045980;28;20213;-77
2021/07/30 02:08:04;;;;;;;3.20;2.80;;;;;;;15.06;74.10;100017.59;5046842;28;20743;-77
2021/07/30 02:10:31;;;;;;;3.47;3.10;;;;;;;15.03;74.57;100007.22;5046503;28;20657;-77
2021/07/30 02:15:42;;;;;;;9.37;3.80;;;;;;;14.96;74.91;99995.25;5046539;28;20208;-78
2021/07/30 02:18:09;;;;;;;3.53;3.03;;;;;;;14.98;74.66;99985.53;5046972;28;21274;-77
2021/07/30 02:20:36;;;;;;;3.67;3.37;;;;;;;14.96;75.36;99966.34;5046712;28;20632;-76
2021/07/30 02:23:03;;;;;;;4.37;2.90;;;;;;;14.98;74.91;99966.28;5045664;28;20221;-77
2021/07/30 02:25:29;;;;;;;3.90;3.00;;;;;;;14.97;74.89;99967.22;5047027;28;20208;-77
2021/07/30 02:27:56;;;;;;;3.67;3.37;;;;;;;14.95;74.85;99977.78;5046170;28;20202;-77
2021/07/30 02:30:22;;;;;;;3.40;3.10;;;;;;;14.92;74.90;99979.69;5046782;28;20396;-78
2021/07/30 02:32:50;;;;;;;4.00;3.10;;;;;;;14.93;75.74;99955.97;5049269;28;20267;-77
2021/07/30 02:35:16;;;;;;;5.83;3.27;;;;;;;14.85;75.07;99972.09;5050389;28;20205;-78
2021/07/30 02:37:43;;;;;;;3.83;3.23;;;;;;;14.88;74.60;99987.72;5049299;28;20599;-78
2021/07/30 02:40:10;;;;;;;3.90;3.40;;;;;;;14.89;75.92;99964.94;5049849;28;20214;-78
2021/07/30 02:42:37;;;;;;;3.73;3.33;;;;;;;14.86;74.82;99975.56;5049587;28;20248;-76
2021/07/30 02:45:04;;;;;;;4.20;3.80;;;;;;;14.91;75.90;99954.34;5050373;28;20205;-77
2021/07/30 02:47:30;;;;;;;6.30;3.23;;;;;;;14.91;75.15;99994.63;5050696;28;20632;-76
2021/07/30 02:49:58;;;;;;;4.13;3.23;;;;;;;14.91;73.43;100028.78;5049624;28;20267;-76
2021/07/30 02:52:24;;;;;;;5.67;3.30;;;;;;;14.98;74.57;100003.91;5049773;28;20229;-77
2021/07/30 02:54:51;;;;;;;4.93;3.87;;;;;;;14.95;74.52;100005.84;5049975;28;20220;-76
2021/07/30 02:57:17;;;;;;;5.50;4.03;;;;;;;14.94;73.71;100033.03;5050244;28;20629;-77
2021/07/30 02:59:44;;;;;;;3.80;3.33;;;;;;;14.97;73.78;100035.56;5049348;28;20217;-75
2021/07/30 03:02:10;;;;;;;4.97;2.97;;;;;;;14.98;73.57;100040.72;5049157;28;20221;-78
2021/07/30 03:04:37;;;;;;;4.23;3.20;;;;;;;15.00;73.22;100030.97;5048532;28;20267;-78
2021/07/30 03:07:05;;;;;;;7.93;3.37;;;;;;;14.91;73.65;100031.41;5049746;28;20198;-76
2021/07/30 03:09:31;;;;;;;4.87;3.17;;;;;;;14.98;73.11;100039.88;5049655;28;20264;-78
2021/07/30 03:11:57;;;;;;;4.03;3.33;;;;;;;15.02;72.95;100044.91;5047959;28;20236;-77
2021/07/30 03:14:24;;;;;;;4.20;3.30;;;;;;;14.98;72.25;100069.63;5048861;28;20222;-76
2021/07/30 03:16:50;;;;;;;4.33;3.57;;;;;;;15.05;71.90;100100.00;5049106;28;20211;-77
2021/07/30 03:19:17;;;;;;;5.30;3.30;;;;;;;15.07;72.29;100081.53;5049085;28;20221;-77
2021/07/30 03:21:43;;;;;;;5.47;3.30;;;;;;;15.09;71.00;100101.56;5047512;28;20229;-76
2021/07/30 03:24:11;;;;;;;5.13;3.23;;;;;;;15.13;71.32;100089.16;5048088;28;20206;-77
2021/07/30 03:26:37;;;;;;;5.53;3.33;;;;;;;15.16;71.72;100096.03;5048704;28;20205;-76
2021/07/30 03:29:05;;;;;;;3.50;3.10;;;;;;;15.15;71.00;100139.03;5048205;28;20596;-76
2021/07/30 03:31:31;;;;;;;3.27;3.00;;;;;;;15.14;70.61;100139.94;5048430;28;20232;-77
2021/07/30 03:33:58;;;;;;;5.03;3.63;;;;;;;15.13;71.44;100107.56;5047244;28;20205;-77
2021/07/30 03:36:24;;;;;;;5.83;3.13;;;;;;;15.09;71.45;100112.09;5048371;28;20687;-78
2021/07/30 03:38:51;;;;;;;5.53;3.20;;;;;;;15.14;70.69;100129.44;5047935;28;20214;-77
2021/07/30 03:41:19;;;;;;;3.87;3.03;;;;;;;15.11;71.49;100106.78;5048296;28;20270;-78
2021/07/30 03:43:45;;;;;;;3.93;3.50;;;;;;;15.06;70.55;100140.28;5046709;28;20203;-76
2021/07/30 03:46:12;;;;;;;5.70;3.03;;;;;;;15.12;71.41;100118.97;5048144;28;20692;-76
2021/07/30 03:48:38;;;;;;;5.63;3.60;;;;;;;15.16;70.66;100124.97;5048326;28;20231;-78
2021/07/30 03:51:05;;;;;;;3.53;3.20;;;;;;;15.19;70.67;100152.00;5048138;28;20889;-76
2021/07/30 03:53:32;;;;;;;4.67;3.30;;;;;;;15.19;70.83;100130.09;5048323;28;20273;-78
2021/07/30 03:55:58;;;;;;;4.67;3.30;;;;;;;15.14;72.18;100087.38;5049036;28;20206;-77
2021/07/30 03:58:26;;;;;;;5.10;3.47;;;;;;;15.15;70.64;100139.91;5048954;28;20198;-77
2021/07/30 04:00:52;;;;;;;4.80;3.43;;;;;;;15.12;71.19;100134.75;5049469;28;20206;-77
2021/07/30 04:03:19;;;;;;;4.83;3.70;;;;;;;15.09;71.39;100113.88;5048771;28;20226;-75
2021/07/30 04:05:45;;;;;;;4.20;3.40;;;;;;;15.14;73.05;100038.25;5049620;28;20237;-78
2021/07/30 04:08:12;;;;;;;4.83;3.13;;;;;;;15.11;72.45;100067.34;5048093;28;20210;-77
2021/07/30 04:10:38;;;;;;;5.90;3.37;;;;;;;15.11;72.65;100074.38;5049140;28;20222;-78
2021/07/30 04:13:04;;;;;;;5.43;3.17;;;;;;;15.10;71.76;100094.53;5047033;28;20226;-77
2021/07/30 04:15:32;;;;;;;3.67;3.23;;;;;;;15.09;73.10;100050.78;5049479;28;20202;-77
2021/07/30 04:17:59;;;;;;;3.27;2.87;;;;;;;15.04;73.14;100048.38;5049116;28;20701;-77
2021/07/30 04:20:25;;;;;;;3.63;3.07;;;;;;;15.05;73.25;100026.41;5049049;28;20656;-77
2021/07/30 04:22:52;;;;;;;6.07;4.00;;;;;;;15.04;73.41;100024.69;5047665;28;20221;-77
2021/07/30 04:25:18;;;;;;;6.73;3.63;;;;;;;15.02;74.06;100013.38;5048839;28;20285;-77
2021/07/30 04:27:44;;;;;;;6.37;3.67;;;;;;;15.03;73.85;100014.25;5048816;28;20211;-78
2021/07/30 04:30:12;;;;;;;4.13;3.30;;;;;;;15.06;74.24;99993.06;5047954;28;20264;-77
2021/07/30 04:32:39;;;;;;;4.87;3.03;;;;;;;15.06;76.27;99937.88;5047234;28;20255;-76
2021/07/30 04:35:06;;;;;;;3.47;3.07;;;;;;;15.08;75.75;99957.94;5048926;28;20205;-78
2021/07/30 04:37:33;;;;;;;4.87;3.77;;;;;;;15.09;74.92;99987.69;5047575;28;20214;-77
2021/07/30 04:39:59;;;;;;;3.30;3.10;;;;;;;15.06;74.81;99996.56;5048307;28;20205;-78
2021/07/30 04:42:27;;;;;;;4.17;3.00;;;;;;;15.06;74.74;99990.44;5048212;28;20229;-77
2021/07/30 04:44:53;;;;;;;4.83;3.50;;;;;;;15.09;75.18;99971.91;5048194;28;20292;-77
2021/07/30 04:47:19;;;;;;;4.37;3.50;;;;;;;15.07;75.84;99942.22;5048944;28;21128;-77
2021/07/30 04:49:47;;;;;;;3.37;2.83;;;;;;;15.07;77.53;99897.53;5048333;28;20209;-77
2021/07/30 04:52:14;;;;;;;4.63;3.13;;;;;;;15.04;76.52;99918.69;5047400;28;20225;-78
2021/07/30 04:54:40;;;;;;;4.50;4.10;;;;;;;15.08;77.09;99926.38;5047029;28;20263;-78
2021/07/30 04:57:08;;;;;;;4.53;3.47;;;;;;;15.14;77.24;99895.47;5047323;28;20251;-77
2021/07/30 04:59:35;;;;;;;3.80;3.43;;;;;;;15.13;77.09;99910.38;5048306;28;20201;-77
2021/07/30 05:02:02;;;;;;;3.80;3.07;;;;;;;15.15;77.57;99900.66;5047480;28;20276;-77
2021/07/30 05:04:29;;;;;;;4.13;3.13;;;;;;;15.15;77.21;99878.78;5048238;28;20229;-77
2021/07/30 05:06:57;;;;;;;4.43;3.10;;;;;;;15.19;76.27;99938.16;5048209;28;20205;-77
2021/07/30 05:09:24;;;;;;;5.67;3.30;;;;;;;15.21;77.73;99884.59;5048129;28;20203;-76
2021/07/30 05:11:50;;;;;;;4.27;3.33;;;;;;;15.27;78.03;99872.94;5047336;28;20237;-77
2021/07/30 05:14:17;;;;;;;4.73;3.63;;;;;;;15.29;75.92;99958.69;5046222;28;20260;-77
2021/07/30 05:16:43;;;;;;;3.90;3.60;;;;;;;15.36;78.61;99869.00;5046955;28;20548;-77
2021/07/30 05:19:09;;;;;;;4.17;3.83;;;;;;;15.37;77.27;99907.53;5046470;28;20206;-77
2021/07/30 05:21:36;;;;;;;5.40;3.37;;;;;;;15.45;77.26;99914.13;5047112;28;20252;-77
2021/07/30 05:24:05;;;;;;;3.80;3.47;;;;;;;15.51;76.11;99939.28;5047319;28;20207;-78
2021/07/30 05:26:31;;;;;;;5.47;3.70;;;;;;;15.55;75.71;99945.25;5047613;28;20209;-78
2021/07/30 05:28:57;;;;;;;5.30;4.00;;;;;;;15.59;76.00;99952.09;5045846;28;20232;-77
2021/07/30 05:31:24;;;;;;;7.90;3.83;;;;;;;15.63;78.51;99865.03;5048062;28;20237;-77
2021/07/30 05:33:51;;;;;;;3.80;3.50;;;;;;;15.71;78.20;99882.22;5047469;28;20239;-76
2021/07/30 05:36:18;;;;;;;6.27;3.47;;;;;;;15.62;73.54;100018.56;5047643;28;20269;-77
2021/07/30 05:38:45;;;;;;;4.47;3.23;;;;;;;15.69;72.93;100074.38;5047252;28;21204;-77
2021/07/30 05:41:14;;;;;;;4.13;3.67;;;;;;;15.81;76.91;99936.16;5048610;28;20219;-76
2021/07/30 05:43:42;;;;;;;3.73;3.43;;;;;;;15.80;77.36;99895.81;5049089;28;20205;-78
2021/07/30 05:46:09;;;;;;;4.47;3.53;;;;;;;15.75;74.48;100020.66;5048339;28;20232;-78
2021/07/30 05:48:36;;;;;;;3.83;3.03;;;;;;;15.88;75.79;99951.56;5047314;28;20255;-77
2021/07/30 05:51:03;;;;;;;5.33;3.23;;;;;;;15.88;74.38;100008.63;5046564;28;20802;-78
2021/07/30 05:53:30;;;;;;;3.73;3.30;;;;;;;15.98;73.30;100051.16;5046171;28;20268;-77
2021/07/30 05:55:56;;;;;;;7.70;3.43;;;;;;;15.96;71.28;100106.50;5047740;28;20264;-77
2021/07/30 05:58:24;;;;;;;4.40;3.07;;;;;;;16.14;73.24;100056.53;5046739;28;20209;-76
2021/07/30 06:00:50;;;;;;;4.10;3.20;;;;;;;16.23;70.74;100137.72;5046356;28;20737;-77
2021/07/30 06:03:17;;;;;;;4.50;3.20;;;;;;;16.29;70.62;100150.59;5046194;28;20715;-77
2021/07/30 06:05:44;;;;;;;5.67;3.30;;;;;;;16.34;69.87;100166.22;5047492;28;20210;-77
2021/07/30 06:08:10;;;;;;;4.53;3.00;;;;;;;16.43;69.48;100202.63;5045966;28;20210;-77
2021/07/30 06:10:37;;;;;;;7.07;3.00;;;;;;;16.54;69.16;100194.25;5046559;28;20244;-77
2021/07/30 06:13:04;;;;;;;5.67;3.50;;;;;;;16.62;67.96;100244.78;5046269;28;20244;-77
2021/07/30 06:15:32;;;;;;;5.77;3.20;;;;;;;16.60;67.54;100259.81;5045848;28;20211;-77
2021/07/30 06:18:01;;;;;;;4.67;3.17;;;;;;;16.72;67.66;100251.34;5045778;28;20195;-76
2021/07/30 06:20:27;;;;;;;3.80;3.40;;;;;;;16.80;67.31;100280.81;5045528;28;20223;-77
2021/07/30 06:22:54;;;;;;;5.20;3.83;;;;;;;16.93;67.60;100272.38;5044553;28;20283;-76
2021/07/30 06:25:20;;;;;;;5.97;3.50;;;;;;;16.83;65.91;100322.91;5044954;28;20273;-76
2021/07/30 06:27:47;;;;;;;4.50;2.93;;;;;;;16.88;65.84;100334.06;5045114;28;20229;-77
2021/07/30 06:30:14;;;;;;;5.53;3.10;;;;;;;16.95;65.72;100326.75;5045385;28;20330;-77
2021/07/30 06:32:42;;;;;;;5.40;3.27;;;;;;;17.01;65.07;100359.88;5045614;28;20265;-76
2021/07/30 06:35:10;;;;;;;6.37;3.20;;;;;;;17.10;65.36;100351.50;5049771;28;20211;-76
2021/07/30 06:37:37;;;;;;;7.13;3.60;;;;;;;17.23;65.56;100339.47;5051865;28;20637;-78
2021/07/30 06:40:05;;;;;;;4.70;3.00;;;;;;;17.23;63.01;100437.06;5048745;28;20261;-78
2021/07/30 06:42:33;;;;;;;7.33;3.37;;;;;;;17.37;63.47;100430.28;5046167;28;20280;-76
2021/07/30 06:44:59;;;;;;;6.90;2.80;;;;;;;17.52;63.73;100407.56;5048672;28;20282;-78
2021/07/30 06:47:26;;;;;;;6.37;3.30;;;;;;;17.59;62.29;100477.63;5048092;28;21562;-78
2021/07/30 06:49:53;;;;;;;6.43;3.10;;;;;;;17.66;61.90;100484.34;5046054;28;20207;-79
2021/07/30 06:52:20;;;;;;;4.20;3.00;;;;;;;17.70;61.94;100488.53;5043037;28;20271;-79
2021/07/30 06:54:46;;;;;;;4.30;3.07;;;;;;;17.75;60.31;100541.13;5043897;28;20216;-80
2021/07/30 06:57:13;;;;;;;10.13;4.27;;;;;;;17.72;59.68;100579.09;5044823;28;20212;-80
2021/07/30 06:59:39;;;;;;;5.90;3.33;;;;;;;17.70;59.74;100558.94;5044849;28;20210;-78
2021/07/30 07:02:07;;;;;;;4.73;3.50;;;;;;;17.72;60.15;100525.41;5042616;28;20239;-80
2021/07/30 07:04:33;;;;;;;3.60;2.97;;;;;;;17.74;60.42;100520.91;5044254;28;20214;-80
2021/07/30 07:07:01;;;;;;;4.07;3.13;;;;;;;17.72;61.26;100501.66;5043198;28;20203;-79
2021/07/30 07:09:27;;;;;;;4.33;2.93;;;;;;;17.69;60.87;100507.94;5043249;28;21091;-79
2021/07/30 07:11:54;;;;;;;6.43;3.30;;;;;;;17.69;60.43;100536.13;5042137;28;20231;-80
2021/07/30 07:14:20;;;;;;;8.27;3.57;;;;;;;17.83;60.39;100508.16;5043207;28;20222;-80
2021/07/30 07:16:47;;;;;;;5.10;2.80;;;;;;;17.96;59.28;100573.63;5042825;28;20605;-80
2021/07/30 07:19:14;;;;;;;8.10;3.60;;;;;;;18.06;58.98;100586.31;5044835;28;20212;-80
2021/07/30 07:21:41;;;;;;;5.10;3.10;;;;;;;18.13;59.02;100584.22;5046234;28;20227;-80
2021/07/30 07:24:09;;;;;;;5.83;3.20;;;;;;;18.17;59.11;100583.13;5044964;28;20255;-80
2021/07/30 07:26:37;;;;;;;5.67;3.23;;;;;;;18.20;58.74;100588.28;5046775;28;20234;-79
2021/07/30 07:29:04;;;;;;;7.80;3.20;;;;;;;18.28;59.19;100577.34;5042115;28;20286;-81
2021/07/30 07:31:30;;;;;;;5.97;3.13;;;;;;;18.28;57.38;100655.78;5046811;28;20236;-80
2021/07/30 07:33:57;;;;;;;4.20;2.80;;;;;;;18.36;57.52;100643.06;5046076;28;20212;-80
2021/07/30 07:36:23;;;;;;;3.67;3.07;;;;;;;18.42;57.02;100659.47;5046181;28;20213;-80
2021/07/30 07:38:50;;;;;;;5.30;3.33;;;;;;;18.44;57.69;100640.88;5046374;28;20267;-80
2021/07/30 07:41:18;;;;;;;4.10;3.10;;;;;;;18.45;57.75;100647.88;5046247;28;20222;-80
2021/07/30 07:43:44;;;;;;;5.23;3.40;;;;;;;18.43;57.12;100661.19;5045814;28;20219;-81
2021/07/30 07:46:10;;;;;;;8.23;3.67;;;;;;;18.44;56.79;100675.25;5045949;28;20209;-80
2021/07/30 07:48:37;;;;;;;4.83;3.30;;;;;;;18.48;56.62;100679.47;5046142;28;20259;-80
2021/07/30 07:51:03;;;;;;;5.67;3.00;;;;;;;18.46;56.73;100679.53;5046065;28;20227;-80
2021/07/30 07:53:30;;;;;;;4.07;3.10;;;;;;;18.66;57.06;100651.25;5044533;28;20242;-78
2021/07/30 07:56:00;;;;;;;6.20;3.13;;;;;;;18.75;56.32;100669.34;5047224;28;20693;-80
2021/07/30 07:58:28;;;;;;;3.73;2.63;;;;;;;18.79;55.86;100704.41;5046658;28;20307;-80
2021/07/30 08:00:55;;;;;;;6.33;2.87;;;;;;;18.81;55.18;100727.25;5046898;28;20625;-79
2021/07/30 08:03:21;;;;;;;4.60;3.00;;;;;;;18.86;55.27;100713.78;5044273;28;20230;-80
2021/07/30 08:05:48;;;;;;;3.67;2.90;;;;;;;18.99;54.68;100751.09;5047391;28;20200;-80
2021/07/30 08:08:14;;;;;;;5.43;3.60;;;;;;;19.03;55.54;100726.19;5046546;28;20332;-80
2021/07/30 08:10:41;;;;;;;6.47;3.00;;;;;;;19.14;55.28;100715.06;5047982;28;20211;-80
2021/07/30 08:13:07;;;;;;;4.80;3.23;;;;;;;19.07;53.73;100788.63;5047861;28;20270;-80
2021/07/30 08:15:35;;;;;;;6.50;2.73;;;;;;;19.22;54.00;100768.47;5048559;28;20209;-80
2021/07/30 08:18:02;;;;;;;4.03;2.93;;;;;;;19.33;53.80;100786.47;5046941;28;20621;-81
2021/07/30 08:20:28;;;;;;;7.87;4.00;;;;;;;19.42;54.61;100763.03;5048414;28;20258;-80
2021/07/30 08:22:54;;;;;;;5.77;3.20;;;;;;;19.43;54.49;100774.47;5047933;28;20270;-80
2021/07/30 08:25:21;;;;;;;3.10;2.73;;;;;;;19.50;54.25;100762.63;5049323;28;20213;-81
2021/07/30 08:27:47;;;;;;;5.63;3.63;;;;;;;19.62;54.68;100742.59;5048289;28;20246;-80
2021/07/30 08:30:14;;;;;;;5.00;3.33;;;;;;;19.74;54.05;100776.47;5048239;28;20623;-79
2021/07/30 08:32:42;;;;;;;4.07;3.03;;;;;;;19.78;53.82;100803.63;5047606;28;20240;-80
2021/07/30 08:35:09;;;;;;;5.23;3.20;;;;;;;19.71;52.93;100826.06;5048852;28;20234;-79
2021/07/30 08:37:36;;;;;;;5.33;3.30;;;;;;;19.77;53.34;100818.66;5048374;28;20212;-80
2021/07/30 08:40:03;;;;;;;5.50;3.13;;;;;;;19.87;53.18;100789.06;5048507;28;20731;-81
2021/07/30 08:42:36;;;;;;;4.37;3.20;;;;;;;19.92;53.70;100802.91;4349042;28;10000840;-78
2021/07/30 08:45:05;;;;;;;5.50;3.20;;;;;;;19.99;53.29;100805.16;5047202;28;20209;-80
2021/07/30 08:47:33;;;;;;;4.33;2.90;;;;;;;20.01;53.05;100807.72;5046943;28;20209;-80
2021/07/30 08:50:01;;;;;;;4.47;3.00;;;;;;;20.09;53.98;100780.84;5045758;28;20247;-80
2021/07/30 08:52:32;;;;;;;4.63;2.80;;;;;;;20.08;53.39;100803.84;5045919;28;20318;-81
2021/07/30 08:54:59;;;;;;;3.70;2.73;;;;;;;20.10;53.56;100778.09;5045587;28;20293;-78
2021/07/30 08:57:25;;;;;;;3.70;2.93;;;;;;;20.06;53.24;100804.84;5046589;28;20560;-80
2021/07/30 08:59:52;;;;;;;4.10;3.10;;;;;;;20.14;53.71;100776.16;5045016;28;20706;-80
2021/07/30 09:02:18;;;;;;;4.80;3.10;;;;;;;20.27;56.17;100683.56;5045095;28;20226;-80
2021/07/30 09:04:45;;;;;;;5.33;3.73;;;;;;;20.24;52.52;100807.38;5045106;28;20213;-80
2021/07/30 09:07:12;;;;;;;3.80;2.70;;;;;;;20.32;53.29;100809.63;5045372;28;20221;-79
2021/07/30 09:09:53;;;;;;;4.77;3.00;;;;;;;20.42;53.42;100794.91;5046292;28;20705;-79
2021/07/30 09:12:22;;;;;;;5.23;3.50;;;;;;;20.35;52.53;100833.31;5045716;28;20235;-80
2021/07/30 09:14:48;;;;;;;2.90;2.53;;;;;;;20.39;52.36;100839.31;5046610;28;20303;-80
2021/07/30 09:17:15;;;;;;;7.67;3.47;;;;;;;20.57;52.88;100784.41;5045601;28;20638;-81
2021/07/30 09:20:00;;;;;;;4.07;2.83;;;;;;;20.59;51.66;100862.13;5047450;28;20858;-80
2021/07/30 09:22:28;;;;;;;4.33;2.87;;;;;;;20.70;52.32;100835.03;5045393;28;20296;-80
2021/07/30 09:24:57;;;;;;;4.30;2.80;;;;;;;20.86;51.65;100837.69;5045597;28;20227;-80
2021/07/30 09:27:23;;;;;;;5.73;2.50;;;;;;;21.01;51.68;100835.03;5045875;28;20296;-79
2021/07/30 09:29:50;;;;;;;4.90;2.87;;;;;;;21.12;51.32;100854.81;5046167;28;20242;-80
2021/07/30 09:32:18;;;;;;;6.17;3.50;;;;;;;21.20;51.45;100861.38;5044318;28;20236;-80
2021/07/30 09:34:48;;;;;;;5.47;2.80;;;;;;;21.28;51.79;100837.06;5045824;28;20311;-81
2021/07/30 09:37:18;;;;;;;6.17;2.57;;;;;;;21.24;50.02;100904.56;5046071;28;20325;-79
2021/07/30 09:39:49;;;;;;;5.20;2.60;;;;;;;21.20;51.20;100877.31;5045080;28;20981;-78
2021/07/30 09:42:17;;;;;;;3.73;2.70;;;;;;;21.17;50.51;100900.56;5044400;28;20232;-80
2021/07/30 09:44:48;;;;;;;3.37;3.07;;;;;;;21.13;50.67;100873.31;5046139;28;20271;-80
2021/07/30 09:47:16;;;;;;;10.43;3.20;;;;;;;20.88;50.85;100883.56;5045361;28;20216;-80
2021/07/30 09:49:48;;;;;;;7.97;2.60;;;;;;;20.97;51.67;100830.84;5045448;28;20215;-81
2021/07/30 09:52:17;;;;;;;5.80;2.50;;;;;;;20.96;51.10;100845.03;5045794;28;20244;-78
2021/07/30 09:54:56;;;;;;;5.70;2.70;;;;;;;21.05;52.21;100805.66;5045086;28;20205;-80
2021/07/30 09:57:24;;;;;;;6.67;3.17;;;;;;;21.12;51.50;100829.09;5042887;28;20208;-79
2021/07/30 09:59:51;;;;;;;4.03;2.33;;;;;;;21.20;51.67;100815.41;5044935;28;20220;-80
2021/07/30 10:02:20;;;;;;;6.30;2.83;;;;;;;21.18;51.49;100815.47;5044861;28;20233;-79
2021/07/30 10:04:49;;;;;;;5.97;2.90;;;;;;;21.06;51.73;100797.59;5044391;28;20221;-80
2021/07/30 10:07:18;;;;;;;4.37;2.50;;;;;;;21.22;51.73;100781.66;5045347;28;20223;-79
2021/07/30 10:09:50;;;;;;;5.23;2.00;;;;;;;21.16;51.67;100801.44;5044882;28;20257;-81
2021/07/30 10:12:17;;;;;;;8.43;2.83;;;;;;;21.15;51.00;100818.31;5044357;28;20360;-80
2021/07/30 10:14:46;;;;;;;6.47;2.83;;;;;;;21.15;51.70;100786.47;5044386;28;20237;-81
2021/07/30 10:17:15;;;;;;;4.17;2.47;;;;;;;21.27;49.87;100859.25;5044343;28;20668;-79
2021/07/30 10:19:43;;;;;;;3.53;2.37;;;;;;;21.33;49.38;100863.38;5045209;28;20250;-80
2021/07/30 10:22:13;;;;;;;3.50;2.00;;;;;;;21.54;51.69;100776.28;5044345;28;20231;-80
2021/07/30 10:24:45;;;;;;;3.17;2.33;;;;;;;21.59;50.42;100840.63;5044740;28;20208;-80
2021/07/30 10:27:14;;;;;;;4.77;2.03;;;;;;;21.61;51.19;100783.78;5043872;28;20212;-79
2021/07/30 10:30:16;;;;;;;3.80;2.17;;;;;;;21.71;50.38;100831.09;5044017;28;20209;-80
2021/07/30 10:32:54;;;;;;;4.37;2.37;;;;;;;21.77;51.18;100774.91;5043578;28;20282;-79
2021/07/30 10:35:42;;;;;;;2.80;2.17;;;;;;;21.79;50.33;100818.19;5043962;28;20753;-80
2021/07/30 10:38:17;;;;;;;5.13;2.20;;;;;;;21.64;49.97;100843.00;5045703;28;20208;-80
2021/07/30 10:40:45;;;;;;;3.93;2.43;;;;;;;21.81;50.86;100779.09;5044674;28;20220;-82
2021/07/30 10:43:14;;;;;;;4.57;2.30;;;;;;;21.89;50.30;100790.09;5045270;28;20271;-80
2021/07/30 10:45:41;;;;;;;3.30;2.20;;;;;;;21.96;51.24;100771.97;5045518;28;20247;-79
2021/07/30 10:48:39;;;;;;;3.60;2.27;;;;;;;22.08;51.05;100731.38;5045393;28;20243;-80
2021/07/30 10:51:26;;;;;;;4.63;2.20;;;;;;;21.99;48.94;100854.22;5045414;28;20313;-79
2021/07/30 10:53:54;;;;;;;2.30;1.70;;;;;;;22.03;49.06;100858.38;5045761;28;20328;-83
2021/07/30 10:56:49;;;;;;;4.17;2.10;;;;;;;21.73;48.94;100869.06;5048176;28;20682;-83
2021/07/30 10:59:21;;;;;;;2.27;1.83;;;;;;;21.83;50.05;100805.59;5049791;28;20631;-79
2021/07/30 11:01:55;;;;;;;6.23;2.33;;;;;;;21.86;49.12;100839.94;5049226;28;20221;-79
2021/07/30 11:04:21;;;;;;;3.43;1.90;;;;;;;22.01;50.65;100781.38;5048027;28;20209;-80
2021/07/30 11:07:02;;;;;;;5.60;2.67;;;;;;;22.00;47.85;100898.44;5044535;28;20205;-80
2021/07/30 11:09:40;;;;;;;2.83;1.87;;;;;;;22.29;48.69;100869.28;5046557;28;20245;-80
2021/07/30 11:12:14;;;;;;;3.13;2.00;;;;;;;22.59;51.64;100715.69;5047015;28;20242;-81
2021/07/30 11:14:48;;;;;;;2.27;2.07;;;;;;;22.63;48.83;100844.09;5046763;28;20269;-80
2021/07/30 11:17:15;;;;;;;3.27;2.57;;;;;;;22.79;49.55;100804.91;5042447;28;20823;-82
2021/07/30 11:19:45;;;;;;;2.37;2.00;;;;;;;22.93;48.22;100857.28;5046069;28;20309;-79
2021/07/30 11:22:16;;;;;;;3.67;2.33;;;;;;;23.02;51.30;100756.44;5044268;28;20791;-80
2021/07/30 11:24:43;;;;;;;2.93;2.07;;;;;;;23.15;49.86;100771.53;5045495;28;20739;-82
2021/07/30 11:27:12;;;;;;;3.63;2.13;;;;;;;23.27;50.35;100753.91;5044592;28;20208;-81
2021/07/30 11:29:44;;;;;;;3.20;1.77;;;;;;;23.44;47.00;100935.75;5045214;28;20279;-78
2021/07/30 11:32:16;;;;;;;2.90;1.60;;;;;;;23.38;45.93;100977.81;5043735;28;20257;-81